createdAt,value
2018-07-17T00:00:03.693Z,97953.61
2018-07-17T00:02:35.673Z,97955.57
2018-07-17T00:05:07.700Z,97953.84
2018-07-17T00:07:39.623Z,97953.33
2018-07-17T00:10:11.251Z,97951.56
2018-07-17T00:12:43.738Z,97948.77
2018-07-17T00:15:15.955Z,97955.18
2018-07-17T00:17:48.117Z,97958.05
2018-07-17T00:20:19.890Z,97950.34
2018-07-17T00:22:51.688Z,97950.34
2018-07-17T00:25:23.658Z,97947.88
2018-07-17T00:27:55.257Z,97948.69
2018-07-17T00:30:26.695Z,97951.06
2018-07-17T00:32:58.608Z,97942.72
2018-07-17T00:35:30.193Z,97944.38
2018-07-17T00:38:02.365Z,97933.05
2018-07-17T00:40:34.501Z,97936.34
2018-07-17T00:43:06.388Z,97928.63
2018-07-17T00:45:38.185Z,97928.32
2018-07-17T00:48:09.956Z,97932.02
2018-07-17T00:50:41.479Z,97924.62
2018-07-17T00:53:13.264Z,97921.53
2018-07-17T00:55:44.783Z,97918.85
2018-07-17T00:58:16.752Z,97909.72
2018-07-17T01:00:47.199Z,97909.10
2018-07-17T01:03:23.563Z,97905.41
2018-07-17T01:05:59.767Z,97906.94
2018-07-17T01:08:36.158Z,97905.71
2018-07-17T01:11:12.715Z,97911.77
2018-07-17T01:14:52.965Z,97911.27
2018-07-17T01:17:25.561Z,97911.47
2018-07-17T01:19:57.477Z,97911.77
2018-07-17T01:22:28.814Z,97914.45
2018-07-17T01:25:00.752Z,97914.66
2018-07-17T01:27:32.282Z,97922.98
2018-07-17T01:30:03.993Z,97917.64
2018-07-17T01:32:35.571Z,97918.55
2018-07-17T01:35:07.363Z,97925.23
2018-07-17T01:37:38.854Z,97919.06
2018-07-17T01:40:10.738Z,97912.80
2018-07-17T01:42:42.787Z,97913.31
2018-07-17T01:45:15.481Z,97917.84
2018-07-17T01:47:46.743Z,97915.37
2018-07-17T01:50:18.541Z,97924.41
2018-07-17T01:52:50.180Z,97919.48
2018-07-17T01:55:22.074Z,97917.45
2018-07-17T01:57:53.966Z,97917.33
2018-07-17T02:00:25.759Z,97923.19
2018-07-17T02:02:57.754Z,97916.19
2018-07-17T02:05:29.534Z,97927.09
2018-07-17T02:08:01.403Z,97919.89
2018-07-17T02:10:33.306Z,97925.55
2018-07-17T02:13:05.084Z,97930.59
2018-07-17T02:15:36.948Z,97939.12
2018-07-17T02:18:08.528Z,97936.56
2018-07-17T02:20:40.785Z,97939.95
2018-07-17T02:23:12.231Z,97945.02
2018-07-17T02:25:44.205Z,97946.23
2018-07-17T02:28:15.829Z,97942.73
2018-07-17T02:30:47.456Z,97941.91
2018-07-17T02:33:19.110Z,97940.26
2018-07-17T02:35:50.775Z,97946.63
2018-07-17T02:38:22.488Z,97947.97
2018-07-17T02:40:54.505Z,97957.24
2018-07-17T02:43:26.254Z,97962.99
2018-07-17T02:45:59.171Z,97956.93
2018-07-17T02:48:31.000Z,97966.48
2018-07-17T02:51:02.799Z,97966.17
2018-07-17T02:53:36.263Z,97973.59
2018-07-17T02:56:08.417Z,97980.80
2018-07-17T02:58:40.249Z,97986.97
2018-07-17T03:01:12.326Z,97982.45
2018-07-17T03:03:44.496Z,97993.34
2018-07-17T03:06:16.373Z,97986.23
2018-07-17T03:08:47.656Z,97990.75
2018-07-17T03:11:19.001Z,97993.66
2018-07-17T03:13:50.187Z,97995.31
2018-07-17T03:16:22.054Z,98000.66
2018-07-17T03:18:54.044Z,98006.91
2018-07-17T03:21:25.785Z,97994.88
2018-07-17T03:23:57.788Z,97988.91
2018-07-17T03:26:29.259Z,97989.73
2018-07-17T03:29:01.299Z,97992.20
2018-07-17T03:31:32.791Z,97991.49
2018-07-17T03:34:04.562Z,97991.69
2018-07-17T03:36:36.483Z,97994.88
2018-07-17T03:39:09.648Z,97995.81
2018-07-17T03:41:41.517Z,97994.16
2018-07-17T03:44:12.966Z,97989.84
2018-07-17T03:46:46.833Z,97992.52
2018-07-17T03:49:18.574Z,97986.77
2018-07-17T03:51:50.250Z,97985.52
2018-07-17T03:54:22.072Z,97981.10
2018-07-17T03:56:53.781Z,97983.98
2018-07-17T03:59:26.745Z,97975.75
2018-07-17T04:01:58.788Z,97980.06
2018-07-17T04:04:30.328Z,97981.48
2018-07-17T04:07:02.157Z,97972.75
2018-07-17T04:09:33.546Z,97977.77
2018-07-17T04:12:05.761Z,97973.24
2018-07-17T04:14:37.516Z,97975.52
2018-07-17T04:17:09.480Z,97986.53
2018-07-17T04:19:41.262Z,97976.85
2018-07-17T04:22:12.974Z,97983.55
2018-07-17T04:24:45.081Z,97983.11
2018-07-17T04:27:16.882Z,97979.72
2018-07-17T04:29:49.293Z,97976.02
2018-07-17T04:32:21.215Z,97978.17
2018-07-17T04:34:53.115Z,97979.83
2018-07-17T04:37:25.656Z,97986.31
2018-07-17T04:39:57.601Z,97991.66
2018-07-17T04:42:29.463Z,97997.95
2018-07-17T04:45:01.227Z,98000.53
2018-07-17T04:47:34.072Z,97999.30
2018-07-17T04:50:05.785Z,98001.15
2018-07-17T04:52:37.588Z,98006.69
2018-07-17T04:55:09.340Z,98007.61
2018-07-17T04:57:41.141Z,98002.68
2018-07-17T05:00:13.145Z,98000.00
2018-07-17T05:02:44.872Z,97994.96
2018-07-17T05:05:16.877Z,97999.40
2018-07-17T05:07:59.698Z,97999.47
2018-07-17T05:10:31.330Z,97996.72
2018-07-17T05:13:03.309Z,97988.25
2018-07-17T05:15:35.096Z,97992.06
2018-07-17T05:18:07.002Z,97995.05
2018-07-17T05:20:39.020Z,97988.75
2018-07-17T05:23:10.968Z,97990.20
2018-07-17T05:25:42.778Z,97989.37
2018-07-17T05:28:14.483Z,97983.30
2018-07-17T05:30:46.311Z,97982.78
2018-07-17T05:33:18.083Z,97991.44
2018-07-17T05:35:49.667Z,97987.70
2018-07-17T05:38:20.978Z,97985.64
2018-07-17T05:40:52.936Z,97998.11
2018-07-17T05:43:24.483Z,97992.44
2018-07-17T05:45:56.188Z,97995.94
2018-07-17T05:48:28.431Z,97997.59
2018-07-17T05:51:00.035Z,98000.55
2018-07-17T05:53:31.970Z,97998.49
2018-07-17T05:56:03.819Z,98000.45
2018-07-17T05:58:36.035Z,97998.67
2018-07-17T06:01:07.768Z,98003.20
2018-07-17T06:03:39.820Z,97995.99
2018-07-17T06:06:11.582Z,97994.55
2018-07-17T06:08:43.492Z,97992.08
2018-07-17T06:11:14.941Z,97999.78
2018-07-17T06:13:47.394Z,97993.84
2018-07-17T06:16:19.835Z,97995.25
2018-07-17T06:18:51.710Z,97995.45
2018-07-17T06:21:23.588Z,97995.04
2018-07-17T06:23:55.295Z,97994.02
2018-07-17T06:26:27.048Z,97990.92
2018-07-17T06:28:58.953Z,97988.24
2018-07-17T06:31:30.781Z,97977.53
2018-07-17T06:34:02.357Z,97982.69
2018-07-17T06:36:34.426Z,97975.06
2018-07-17T06:39:07.900Z,97970.02
2018-07-17T06:41:39.881Z,97976.19
2018-07-17T06:44:11.666Z,97974.03
2018-07-17T06:46:43.384Z,97971.35
2018-07-17T06:49:15.565Z,97967.20
2018-07-17T06:51:47.326Z,97969.88
2018-07-17T06:54:19.123Z,97958.95
2018-07-17T06:56:50.820Z,97960.81
2018-07-17T06:59:22.599Z,97958.75
2018-07-17T07:01:54.075Z,97961.59
2018-07-17T07:04:26.051Z,97956.23
2018-07-17T07:06:58.067Z,97953.11
2018-07-17T07:09:29.898Z,97955.00
2018-07-17T07:12:01.580Z,97951.77
2018-07-17T07:14:33.445Z,97944.80
2018-07-17T07:17:05.312Z,97947.03
2018-07-17T07:19:37.421Z,97945.69
2018-07-17T07:22:09.037Z,97940.94
2018-07-17T07:24:40.868Z,97936.92
2018-07-17T07:27:12.552Z,97941.11
2018-07-17T07:29:44.087Z,97939.05
2018-07-17T07:32:15.744Z,97925.65
2018-07-17T07:34:47.721Z,97922.31
2018-07-17T07:37:19.638Z,97915.40
2018-07-17T07:39:51.455Z,97917.05
2018-07-17T07:42:23.501Z,97917.25
2018-07-17T07:44:55.167Z,97920.13
2018-07-17T07:47:26.949Z,97906.84
2018-07-17T07:49:59.152Z,97906.53
2018-07-17T07:52:30.846Z,97907.50
2018-07-17T07:55:02.526Z,97898.33
2018-07-17T07:57:34.127Z,97892.36
2018-07-17T08:00:06.062Z,97886.28
2018-07-17T08:02:37.750Z,97886.89
2018-07-17T08:05:09.546Z,97879.44
2018-07-17T08:07:41.229Z,97878.41
2018-07-17T08:10:13.071Z,97873.80
2018-07-17T08:12:44.756Z,97867.92
2018-07-17T08:15:16.710Z,97865.77
2018-07-17T08:17:48.541Z,97860.10
2018-07-17T08:20:20.437Z,97850.72
2018-07-17T08:22:52.097Z,97845.16
2018-07-17T08:25:24.031Z,97842.75
2018-07-17T08:27:55.820Z,97842.55
2018-07-17T08:30:27.631Z,97834.66
2018-07-17T08:32:59.394Z,97829.50
2018-07-17T08:35:31.083Z,97829.81
2018-07-17T08:38:02.773Z,97820.03
2018-07-17T08:40:34.374Z,97823.02
2018-07-17T08:43:06.039Z,97812.82
2018-07-17T08:45:37.872Z,97802.50
2018-07-17T08:48:09.637Z,97801.11
2018-07-17T08:50:42.644Z,97791.73
2018-07-17T08:53:14.537Z,97788.23
2018-07-17T08:55:46.465Z,97787.20
2018-07-17T08:58:18.216Z,97782.14
2018-07-17T09:00:50.132Z,97779.83
2018-07-17T09:03:22.235Z,97778.80
2018-07-17T09:05:54.231Z,97767.56
2018-07-17T09:08:25.994Z,97772.61
2018-07-17T09:10:57.759Z,97773.22
2018-07-17T09:13:29.574Z,97774.87
2018-07-17T09:16:01.205Z,97769.51
2018-07-17T09:18:32.959Z,97767.66
2018-07-17T09:21:04.740Z,97758.48
2018-07-17T09:23:36.494Z,97753.86
2018-07-17T09:26:08.260Z,97750.14
2018-07-17T09:28:39.963Z,97752.00
2018-07-17T09:31:11.548Z,97733.77
2018-07-17T09:33:43.537Z,97733.34
2018-07-17T09:36:15.158Z,97727.98
2018-07-17T09:38:46.894Z,97722.92
2018-07-17T09:41:18.321Z,97721.58
2018-07-17T09:43:50.058Z,97727.21
2018-07-17T09:46:21.875Z,97725.14
2018-07-17T09:48:53.573Z,97711.74
2018-07-17T09:51:25.629Z,97704.73
2018-07-17T09:53:57.364Z,97708.02
2018-07-17T09:56:29.144Z,97704.61
2018-07-17T09:59:00.857Z,97693.89
2018-07-17T10:01:37.184Z,97699.00
2018-07-17T10:04:08.916Z,97696.41
2018-07-17T10:06:40.767Z,97689.41
2018-07-17T10:09:12.403Z,97691.79
2018-07-17T10:11:44.439Z,97682.80
2018-07-17T10:14:15.874Z,97682.28
2018-07-17T10:16:47.807Z,97682.28
2018-07-17T10:19:19.658Z,97675.91
2018-07-17T10:21:51.718Z,97668.36
2018-07-17T10:24:23.537Z,97660.14
2018-07-17T10:26:55.255Z,97655.87
2018-07-17T10:29:26.924Z,97650.95
2018-07-17T10:31:58.763Z,97638.37
2018-07-17T10:34:30.642Z,97643.81
2018-07-17T10:37:02.250Z,97637.19
2018-07-17T10:39:34.076Z,97632.27
2018-07-17T10:42:05.949Z,97625.48
2018-07-17T10:44:37.588Z,97627.95
2018-07-17T10:47:09.271Z,97632.27
2018-07-17T10:49:41.205Z,97626.91
2018-07-17T10:52:14.953Z,97626.61
2018-07-17T10:54:46.712Z,97621.33
2018-07-17T10:57:18.799Z,97622.15
2018-07-17T10:59:50.921Z,97615.28
2018-07-17T11:02:22.853Z,97614.70
2018-07-17T11:04:54.546Z,97614.23
2018-07-17T11:07:26.365Z,97617.44
2018-07-17T11:09:58.013Z,97597.28
2018-07-17T11:12:29.804Z,97613.20
2018-07-17T11:15:01.579Z,97604.86
2018-07-17T11:17:33.382Z,97612.16
2018-07-17T11:20:05.054Z,97609.78
2018-07-17T11:22:37.112Z,97614.32
2018-07-17T11:25:08.829Z,97605.16
2018-07-17T11:27:40.705Z,97613.20
2018-07-17T11:30:12.494Z,97615.66
2018-07-17T11:32:44.358Z,97609.83
2018-07-17T11:35:15.981Z,97602.39
2018-07-17T11:37:47.863Z,97607.53
2018-07-17T11:40:19.487Z,97603.81
2018-07-17T11:42:51.371Z,97613.49
2018-07-17T11:45:23.054Z,97619.12
2018-07-17T11:50:58.086Z,97623.14
2018-07-17T11:53:30.084Z,97618.69
2018-07-17T11:56:01.916Z,97626.44
2018-07-17T11:58:33.626Z,97626.44
2018-07-17T12:01:06.250Z,97629.27
2018-07-17T12:03:37.875Z,97632.84
2018-07-17T12:06:09.698Z,97636.47
2018-07-17T12:08:41.318Z,97632.09
2018-07-17T12:11:14.111Z,97625.56
2018-07-17T12:13:45.719Z,97626.60
2018-07-17T12:16:17.625Z,97623.75
2018-07-17T12:18:49.233Z,97626.22
2018-07-17T12:21:20.978Z,97625.91
2018-07-17T12:23:52.584Z,97621.97
2018-07-17T12:26:24.376Z,97630.32
2018-07-17T12:28:55.932Z,97630.92
2018-07-17T12:31:27.655Z,97631.48
2018-07-17T12:33:59.325Z,97631.48
2018-07-17T12:36:31.085Z,97617.52
2018-07-17T12:39:02.764Z,97625.70
2018-07-17T12:41:34.448Z,97627.64
2018-07-17T12:44:06.344Z,97636.11
2018-07-17T12:46:38.265Z,97637.75
2018-07-17T12:49:09.752Z,97641.47
2018-07-17T12:51:41.720Z,97652.42
2018-07-17T12:54:13.245Z,97658.61
2018-07-17T12:56:45.062Z,97656.66
2018-07-17T12:59:16.775Z,97658.61
2018-07-17T13:01:48.807Z,97659.20
2018-07-17T13:04:20.423Z,97658.91
2018-07-17T13:06:51.962Z,97668.29
2018-07-17T13:09:23.671Z,97667.25
2018-07-17T13:11:55.500Z,97670.97
2018-07-17T13:14:27.140Z,97679.84
2018-07-17T13:16:59.048Z,97682.30
2018-07-17T13:19:30.801Z,97683.94
2018-07-17T13:22:02.524Z,97687.66
2018-07-17T13:24:33.935Z,97692.51
2018-07-17T13:27:05.761Z,97696.28
2018-07-17T13:29:37.433Z,97701.07
2018-07-17T13:32:09.486Z,97704.79
2018-07-17T13:34:41.017Z,97707.47
2018-07-17T13:37:12.932Z,97720.14
2018-07-17T13:39:44.996Z,97720.66
2018-07-17T13:42:16.955Z,97728.10
2018-07-17T13:44:48.765Z,97735.72
2018-07-17T13:47:20.450Z,97735.93
2018-07-17T13:49:52.013Z,97740.47
2018-07-17T13:52:24.051Z,97745.31
2018-07-17T13:54:55.617Z,97750.16
2018-07-17T13:57:27.932Z,97758.20
2018-07-17T13:59:59.622Z,97766.00
2018-07-17T14:02:31.301Z,97771.36
2018-07-17T14:05:03.175Z,97771.61
2018-07-17T14:07:34.768Z,97777.55
2018-07-17T14:10:06.552Z,97788.80
2018-07-17T14:12:37.837Z,97787.19
2018-07-17T14:15:09.345Z,97799.52
2018-07-17T14:17:41.159Z,97800.86
2018-07-17T14:20:13.496Z,97811.32
2018-07-17T14:22:45.330Z,97816.38
2018-07-17T14:25:16.749Z,97822.56
2018-07-17T14:27:48.678Z,97830.61
2018-07-17T14:30:20.570Z,97832.77
2018-07-17T14:32:52.292Z,97833.59
2018-07-17T14:35:23.915Z,97837.37
2018-07-17T14:37:55.744Z,97832.31
2018-07-17T14:40:27.428Z,97833.65
2018-07-17T14:42:59.257Z,97836.55
2018-07-17T14:45:30.890Z,97834.99
2018-07-17T14:48:02.821Z,97833.34
2018-07-17T14:50:34.458Z,97840.36
2018-07-17T14:53:06.470Z,97839.53
2018-07-17T14:55:38.189Z,97837.06
2018-07-17T14:58:09.993Z,97833.05
2018-07-17T15:00:41.556Z,97835.73
2018-07-17T15:03:13.532Z,97836.04
2018-07-17T15:05:45.182Z,97835.44
2018-07-17T15:08:17.069Z,97844.45
2018-07-17T15:10:48.906Z,97845.66
2018-07-17T15:13:20.751Z,97845.66
2018-07-17T15:15:52.439Z,97847.27
2018-07-17T15:18:24.556Z,97843.77
2018-07-17T15:20:56.437Z,97844.32
2018-07-17T15:23:27.640Z,97841.86
2018-07-17T15:25:58.735Z,97839.75
2018-07-17T15:28:30.719Z,97849.95
2018-07-17T15:31:02.343Z,97852.88
2018-07-17T15:33:34.238Z,97858.00
2018-07-17T15:36:05.832Z,97860.92
2018-07-17T15:38:37.719Z,97862.55
2018-07-17T15:41:09.186Z,97867.63
2018-07-17T15:43:40.870Z,97866.05
2018-07-17T15:46:12.505Z,97872.17
2018-07-17T15:48:44.312Z,97871.93
2018-07-17T15:51:16.049Z,97876.20
2018-07-17T15:53:47.883Z,97883.11
2018-07-17T15:56:19.500Z,97889.67
2018-07-17T15:58:51.237Z,97904.11
2018-07-17T16:01:22.910Z,97914.89
2018-07-17T16:03:54.619Z,97920.35
2018-07-17T16:06:26.276Z,97928.19
2018-07-17T16:08:57.997Z,97931.69
2018-07-17T16:11:29.975Z,97933.34
2018-07-17T16:14:02.204Z,97945.09
2018-07-17T16:16:33.952Z,97945.92
2018-07-17T16:19:07.213Z,97949.94
2018-07-17T16:21:39.409Z,97955.06
2018-07-17T16:24:11.201Z,97956.41
2018-07-17T16:26:43.759Z,97965.79
2018-07-17T16:29:15.553Z,97964.17
2018-07-17T16:31:47.161Z,97959.33
2018-07-17T16:34:19.012Z,97957.98
2018-07-17T16:36:50.809Z,97961.49
2018-07-17T16:39:22.745Z,97958.81
2018-07-17T16:41:54.248Z,97959.38
2018-07-17T16:44:26.536Z,97953.56
2018-07-17T16:46:58.036Z,97951.92
2018-07-17T16:49:29.439Z,97956.04
2018-07-17T16:52:01.448Z,97956.86
2018-07-17T16:54:33.913Z,97956.86
2018-07-17T16:57:05.769Z,97960.36
2018-07-17T16:59:37.650Z,97957.17
2018-07-17T17:02:09.333Z,97955.31
2018-07-17T17:04:41.117Z,97952.11
2018-07-17T17:07:12.761Z,97953.97
2018-07-17T17:09:44.570Z,97949.42
2018-07-17T17:12:16.323Z,97949.42
2018-07-17T17:14:48.181Z,97949.42
2018-07-17T17:17:19.813Z,97953.97
2018-07-17T17:19:51.721Z,97948.36
2018-07-17T17:22:23.550Z,97946.75
2018-07-17T17:24:55.399Z,97949.42
2018-07-17T17:27:27.081Z,97948.60
2018-07-17T17:29:58.887Z,97946.44
2018-07-17T17:32:30.631Z,97950.16
2018-07-17T17:35:02.463Z,97939.95
2018-07-17T17:37:34.110Z,97945.09
2018-07-17T17:40:06.961Z,97939.73
2018-07-17T17:42:38.674Z,97936.84
2018-07-17T17:45:10.402Z,97935.50
2018-07-17T17:47:42.312Z,97933.34
2018-07-17T17:50:14.095Z,97936.02
2018-07-17T17:52:45.851Z,97935.20
2018-07-17T17:55:17.531Z,97932.27
2018-07-17T17:57:48.991Z,97930.34
2018-07-17T18:00:20.628Z,97927.15
2018-07-17T18:02:52.793Z,97931.69
2018-07-17T18:05:24.766Z,97928.48
2018-07-17T18:07:56.452Z,97927.97
2018-07-17T18:10:28.146Z,97931.69
2018-07-17T18:12:59.891Z,97926.84
2018-07-17T18:15:31.380Z,97924.68
2018-07-17T18:18:03.280Z,97928.40
2018-07-17T18:20:35.195Z,97918.50
2018-07-17T18:23:07.020Z,97916.94
2018-07-17T18:25:38.860Z,97926.33
2018-07-17T18:28:10.246Z,97923.34
2018-07-17T18:30:42.122Z,97922.61
2018-07-17T18:33:13.821Z,97918.28
2018-07-17T18:35:45.754Z,97918.59
2018-07-17T18:38:17.369Z,97919.11
2018-07-17T18:40:49.166Z,97912.40
2018-07-17T18:43:20.834Z,97903.84
2018-07-17T18:45:52.724Z,97905.17
2018-07-17T18:48:24.074Z,97900.55
2018-07-17T18:50:55.801Z,97899.52
2018-07-17T18:53:27.540Z,97901.89
2018-07-17T18:55:59.296Z,97896.52
2018-07-17T18:58:31.234Z,97896.83
2018-07-17T19:01:03.008Z,97893.32
2018-07-17T19:03:34.713Z,97892.50
2018-07-17T19:06:07.985Z,97887.44
2018-07-17T19:08:39.715Z,97880.73
2018-07-17T19:11:11.293Z,97880.22
2018-07-17T19:13:42.731Z,97881.77
2018-07-17T19:16:14.544Z,97879.09
2018-07-17T19:18:46.321Z,97872.69
2018-07-17T19:21:18.197Z,97870.06
2018-07-17T19:23:50.262Z,97867.33
2018-07-17T19:26:22.179Z,97863.00
2018-07-17T19:28:54.214Z,97862.70
2018-07-17T19:31:26.026Z,97859.28
2018-07-17T19:33:58.000Z,97863.00
2018-07-17T19:36:29.754Z,97852.48
2018-07-17T19:39:01.448Z,97855.69
2018-07-17T19:41:33.349Z,97855.99
2018-07-17T19:44:05.267Z,97864.47
2018-07-17T19:46:37.207Z,97859.11
2018-07-17T19:49:08.909Z,97864.25
2018-07-17T19:51:40.873Z,97860.23
2018-07-17T19:54:12.684Z,97862.39
2018-07-17T19:56:44.747Z,97866.11
2018-07-17T19:59:16.424Z,97873.06
2018-07-17T20:01:48.382Z,97867.91
2018-07-17T20:04:20.053Z,97875.19
2018-07-17T20:06:52.095Z,97870.90
2018-07-17T20:09:23.910Z,97867.61
2018-07-17T20:11:55.497Z,97868.03
2018-07-17T20:14:27.187Z,97868.34
2018-07-17T20:16:58.792Z,97869.77
2018-07-17T20:19:30.528Z,97864.31
2018-07-17T20:22:02.358Z,97861.64
2018-07-17T20:24:33.887Z,97865.36
2018-07-17T20:27:05.667Z,97864.92
2018-07-17T20:29:37.262Z,97868.73
2018-07-17T20:32:09.187Z,97869.04
2018-07-17T20:34:40.820Z,97866.57
2018-07-17T20:37:13.928Z,97872.52
2018-07-17T20:39:45.316Z,97869.55
2018-07-17T20:42:17.610Z,97869.83
2018-07-17T20:44:49.266Z,97876.53
2018-07-17T20:47:21.412Z,97879.46
2018-07-17T20:49:53.125Z,97879.98
2018-07-17T20:52:25.140Z,97888.23
2018-07-17T20:54:57.453Z,97889.05
2018-07-17T20:57:29.463Z,97891.13
2018-07-17T21:00:01.284Z,97896.06
2018-07-17T21:02:32.841Z,97899.11
2018-07-17T21:05:04.872Z,97892.77
2018-07-17T21:07:36.880Z,97905.51
2018-07-17T21:10:08.570Z,97905.72
2018-07-17T21:12:40.458Z,97907.16
2018-07-17T21:15:12.116Z,97904.47
2018-07-17T21:17:43.929Z,97911.70
2018-07-17T21:20:15.718Z,97909.53
2018-07-17T21:22:47.480Z,97915.41
2018-07-17T21:25:19.294Z,97912.73
2018-07-17T21:27:50.873Z,97913.77
2018-07-17T21:30:22.732Z,97904.99
2018-07-17T21:32:54.601Z,97910.36
2018-07-17T21:35:26.494Z,97909.28
2018-07-17T21:37:58.588Z,97906.61
2018-07-17T21:40:30.319Z,97903.34
2018-07-17T21:43:01.981Z,97907.67
2018-07-17T21:45:33.937Z,97909.02
2018-07-17T21:48:06.130Z,97902.52
2018-07-17T21:50:37.805Z,97904.08
2018-07-17T21:53:09.604Z,97906.14
2018-07-17T21:55:41.287Z,97906.23
2018-07-17T21:58:13.020Z,97907.88
2018-07-17T22:00:44.835Z,97909.23
2018-07-17T22:03:16.839Z,97900.05
2018-07-17T22:05:48.487Z,97911.70
2018-07-17T22:08:20.359Z,97908.41
2018-07-17T22:10:51.980Z,97910.78
2018-07-17T22:13:24.146Z,97916.29
2018-07-17T22:15:55.757Z,97915.53
2018-07-17T22:18:27.764Z,97915.98
2018-07-17T22:20:59.200Z,97910.93
2018-07-17T22:23:32.507Z,97917.63
2018-07-17T22:26:04.215Z,97919.18
2018-07-17T22:28:36.145Z,97925.37
2018-07-17T22:31:07.997Z,97925.67
2018-07-17T22:33:39.703Z,97925.06
2018-07-17T22:36:11.283Z,97918.05
2018-07-17T22:38:43.151Z,97921.25
2018-07-17T22:41:14.960Z,97919.09
2018-07-17T22:43:46.768Z,97916.72
2018-07-17T22:46:18.767Z,97921.77
2018-07-17T22:48:51.170Z,97920.64
2018-07-17T22:51:22.785Z,97918.99
2018-07-17T22:53:54.680Z,97917.14
2018-07-17T22:56:26.106Z,97914.97
2018-07-17T22:58:57.918Z,97912.29
2018-07-17T23:01:29.673Z,97904.80
2018-07-17T23:04:01.718Z,97902.84
2018-07-17T23:06:33.049Z,97910.58
2018-07-17T23:09:05.653Z,97909.86
2018-07-17T23:11:37.554Z,97913.11
2018-07-17T23:14:09.826Z,97919.55
2018-07-17T23:16:41.669Z,97920.58
2018-07-17T23:19:13.498Z,97923.77
2018-07-17T23:21:45.069Z,97919.55
2018-07-17T23:24:17.003Z,97919.23
2018-07-17T23:26:49.137Z,97923.26
2018-07-17T23:29:20.769Z,97920.78
2018-07-17T23:31:52.497Z,97926.97
2018-07-17T23:34:24.320Z,97925.33
2018-07-17T23:36:56.006Z,97928.83
2018-07-17T23:39:27.573Z,97930.69
2018-07-17T23:41:59.233Z,97931.20
2018-07-17T23:44:30.791Z,97933.58
2018-07-17T23:47:02.333Z,97930.69
2018-07-17T23:49:38.735Z,97939.24
2018-07-17T23:52:10.500Z,97935.44
2018-07-17T23:54:42.204Z,97934.40
2018-07-17T23:57:15.430Z,97937.39
2018-07-17T23:59:47.631Z,97941.10
